TUI119 LTBS-EDDF
Flight info
| Callsign | TUI119 |
|---|---|
| Flight time | N/A |
| Altitude | 38000 |
| Route | KEKIK1C/19 KEKIK DCT YOYYO UG80 IMR UN127 RIKSO DCT DISOR DCT LONTA UL608 DOLEV DCT NOVLO DCT PODET DCT SIMBA DCT AKINI T161 DEBHI DEBHI1D |
| Aircraft | B38M/M-SDE1FGHILORVWXY/HB1 |
Departure
| Time | 2026-04-26 11:54 |
|---|---|
| Airport | Dalaman International Airport (LTBS) |
Arrival
| Time | N/A |
|---|---|
| Airport | Frankfurt Main Airport (EDDF) |
| Time | Latitude | Longitude | Altitude | Speed | Heading |
|---|---|---|---|---|---|
| 2026-04-26 11:34 | 36.72324 | 28.79068 | 14 ft | 0 kts | 285° |
| 2026-04-26 11:44 | 36.72323 | 28.79075 | 15 ft | 2 kts | 285° |
| 2026-04-26 11:44 | 36.72317 | 28.79099 | 16 ft | 3 kts | 285° |
| 2026-04-26 11:45 | 36.72312 | 28.79123 | 17 ft | 3 kts | 294° |
| 2026-04-26 11:45 | 36.72301 | 28.79142 | 17 ft | 3 kts | 325° |
| 2026-04-26 11:45 | 36.72287 | 28.79148 | 17 ft | 2 kts | 11° |
| 2026-04-26 11:45 | 36.72276 | 28.79145 | 16 ft | 3 kts | 15° |
| 2026-04-26 11:46 | 36.72263 | 28.79140 | 18 ft | 1 kts | 15° |
| 2026-04-26 11:50 | 36.72277 | 28.79145 | 16 ft | 3 kts | 15° |
| 2026-04-26 11:50 | 36.72301 | 28.79171 | 14 ft | 6 kts | 71° |
| 2026-04-26 11:50 | 36.72294 | 28.79238 | 14 ft | 9 kts | 103° |
| 2026-04-26 11:51 | 36.72277 | 28.79324 | 14 ft | 11 kts | 104° |
| 2026-04-26 11:51 | 36.72324 | 28.79384 | 14 ft | 12 kts | 15° |
| 2026-04-26 11:51 | 36.72410 | 28.79412 | 14 ft | 14 kts | 15° |
| 2026-04-26 11:51 | 36.72508 | 28.79445 | 14 ft | 15 kts | 15° |
| 2026-04-26 11:52 | 36.72579 | 28.79469 | 14 ft | 5 kts | 15° |
| 2026-04-26 11:52 | 36.72605 | 28.79478 | 14 ft | 7 kts | 15° |
| 2026-04-26 11:52 | 36.72648 | 28.79532 | 14 ft | 8 kts | 95° |
| 2026-04-26 11:52 | 36.72631 | 28.79602 | 14 ft | 9 kts | 107° |
| 2026-04-26 11:53 | 36.72595 | 28.79673 | 14 ft | 11 kts | 155° |
| 2026-04-26 11:53 | 36.72517 | 28.79660 | 14 ft | 14 kts | 196° |
| 2026-04-26 11:53 | 36.72148 | 28.79535 | 14 ft | 97 kts | 195° |
| 2026-04-26 11:54 | 36.70052 | 28.78794 | 530 ft | 190 kts | 197° |
| 2026-04-26 11:54 | 36.68762 | 28.78333 | 1501 ft | 194 kts | 196° |
| 2026-04-26 11:54 | 36.67400 | 28.77825 | 2233 ft | 218 kts | 198° |
| 2026-04-26 11:54 | 36.65893 | 28.77224 | 3049 ft | 233 kts | 198° |
| 2026-04-26 11:55 | 36.64395 | 28.76396 | 3988 ft | 240 kts | 215° |
| 2026-04-26 11:55 | 36.63242 | 28.74878 | 4903 ft | 242 kts | 245° |
| 2026-04-26 11:55 | 36.62853 | 28.72872 | 5678 ft | 251 kts | 271° |
| 2026-04-26 11:55 | 36.63175 | 28.70695 | 6282 ft | 260 kts | 287° |
| 2026-04-26 11:56 | 36.63661 | 28.68448 | 6711 ft | 280 kts | 287° |
| 2026-04-26 11:56 | 36.64189 | 28.66024 | 7345 ft | 290 kts | 286° |
| 2026-04-26 11:56 | 36.64713 | 28.63628 | 8486 ft | 288 kts | 286° |
| 2026-04-26 11:56 | 36.65263 | 28.61194 | 9322 ft | 296 kts | 290° |
| 2026-04-26 11:57 | 36.66335 | 28.59031 | 10190 ft | 294 kts | 317° |
| 2026-04-26 11:57 | 36.67958 | 28.57467 | 10958 ft | 299 kts | 325° |
| 2026-04-26 11:57 | 36.69620 | 28.55887 | 11774 ft | 302 kts | 324° |
| 2026-04-26 11:57 | 36.71286 | 28.54265 | 12579 ft | 306 kts | 324° |
| 2026-04-26 11:58 | 36.72969 | 28.52608 | 13375 ft | 310 kts | 323° |
| 2026-04-26 11:58 | 36.74669 | 28.50923 | 14108 ft | 314 kts | 323° |
| 2026-04-26 11:58 | 36.75804 | 28.49792 | 14569 ft | 316 kts | 323° |
| 2026-04-26 11:58 | 36.77544 | 28.48097 | 15254 ft | 318 kts | 329° |
| 2026-04-26 11:59 | 36.79555 | 28.47034 | 15974 ft | 314 kts | 349° |
| 2026-04-26 11:59 | 36.81681 | 28.46313 | 16578 ft | 320 kts | 346° |
| 2026-04-26 11:59 | 36.83827 | 28.45537 | 17225 ft | 322 kts | 346° |
| 2026-04-26 11:59 | 36.85927 | 28.44493 | 17877 ft | 329 kts | 331° |
| 2026-04-26 12:00 | 36.87756 | 28.42742 | 18498 ft | 334 kts | 323° |
| 2026-04-26 12:00 | 36.89571 | 28.40909 | 19052 ft | 336 kts | 324° |
| 2026-04-26 12:00 | 36.91404 | 28.39085 | 19666 ft | 338 kts | 324° |
| 2026-04-26 12:00 | 36.93252 | 28.37257 | 20216 ft | 340 kts | 324° |
| 2026-04-26 12:01 | 36.95113 | 28.35419 | 20813 ft | 341 kts | 324° |
| 2026-04-26 12:01 | 36.96977 | 28.33576 | 21371 ft | 343 kts | 324° |
| 2026-04-26 12:01 | 36.98860 | 28.31717 | 21873 ft | 347 kts | 324° |
| 2026-04-26 12:01 | 37.00758 | 28.29841 | 22421 ft | 349 kts | 325° |
| 2026-04-26 12:02 | 37.02671 | 28.27949 | 22953 ft | 352 kts | 325° |
| 2026-04-26 12:02 | 37.04246 | 28.26389 | 23381 ft | 354 kts | 325° |
| 2026-04-26 12:02 | 37.04548 | 28.26091 | 23463 ft | 354 kts | 325° |
| 2026-04-26 12:03 | 37.06486 | 28.24171 | 23907 ft | 357 kts | 325° |
| 2026-04-26 12:03 | 37.08435 | 28.22240 | 24338 ft | 359 kts | 325° |
| 2026-04-26 12:03 | 37.10398 | 28.20293 | 24773 ft | 361 kts | 325° |
| 2026-04-26 12:03 | 37.12371 | 28.18336 | 25189 ft | 363 kts | 325° |
| 2026-04-26 12:04 | 37.14356 | 28.16365 | 25610 ft | 365 kts | 325° |
| 2026-04-26 12:04 | 37.16357 | 28.14376 | 26034 ft | 367 kts | 325° |
| 2026-04-26 12:04 | 37.18367 | 28.12377 | 26413 ft | 371 kts | 325° |
| 2026-04-26 12:04 | 37.20425 | 28.10332 | 26428 ft | 385 kts | 325° |
| 2026-04-26 12:05 | 37.22534 | 28.08235 | 26453 ft | 398 kts | 325° |
| 2026-04-26 12:05 | 37.24742 | 28.06039 | 26434 ft | 411 kts | 325° |
| 2026-04-26 12:05 | 37.27014 | 28.03777 | 26546 ft | 421 kts | 325° |
| 2026-04-26 12:05 | 37.29302 | 28.01492 | 27090 ft | 419 kts | 325° |
| 2026-04-26 12:06 | 37.31581 | 27.99215 | 27616 ft | 418 kts | 325° |
| 2026-04-26 12:06 | 37.33852 | 27.96943 | 28144 ft | 417 kts | 325° |
| 2026-04-26 12:06 | 37.36116 | 27.94676 | 28674 ft | 415 kts | 325° |
| 2026-04-26 12:06 | 37.38374 | 27.92414 | 29198 ft | 414 kts | 325° |
| 2026-04-26 12:07 | 37.40622 | 27.90158 | 29709 ft | 413 kts | 326° |
| 2026-04-26 12:07 | 37.42864 | 27.87910 | 30173 ft | 412 kts | 326° |
| 2026-04-26 12:07 | 37.45100 | 27.85665 | 30572 ft | 411 kts | 326° |
| 2026-04-26 12:07 | 37.47326 | 27.83427 | 30984 ft | 408 kts | 326° |
| 2026-04-26 12:08 | 37.49540 | 27.81201 | 31446 ft | 406 kts | 326° |
| 2026-04-26 12:08 | 37.51741 | 27.78986 | 31849 ft | 404 kts | 326° |
| 2026-04-26 12:08 | 37.53935 | 27.76776 | 32256 ft | 403 kts | 326° |
| 2026-04-26 12:08 | 37.56122 | 27.74572 | 32642 ft | 402 kts | 326° |
| 2026-04-26 12:09 | 37.58299 | 27.72376 | 33007 ft | 400 kts | 326° |
| 2026-04-26 12:09 | 37.60469 | 27.70185 | 33376 ft | 399 kts | 326° |
| 2026-04-26 12:09 | 37.62633 | 27.67999 | 33725 ft | 398 kts | 326° |
| 2026-04-26 12:09 | 37.64790 | 27.65818 | 34031 ft | 396 kts | 326° |
| 2026-04-26 12:10 | 37.66940 | 27.63641 | 34281 ft | 396 kts | 326° |
| 2026-04-26 12:10 | 37.69093 | 27.61460 | 34520 ft | 397 kts | 325° |
| 2026-04-26 12:10 | 37.71248 | 27.59277 | 34741 ft | 397 kts | 325° |
| 2026-04-26 12:10 | 37.73401 | 27.57094 | 34955 ft | 397 kts | 325° |
| 2026-04-26 12:11 | 37.75560 | 27.54904 | 35187 ft | 397 kts | 324° |
| 2026-04-26 12:11 | 37.77713 | 27.52717 | 35401 ft | 397 kts | 324° |
| 2026-04-26 12:11 | 37.79863 | 27.50532 | 35616 ft | 397 kts | 324° |
| 2026-04-26 12:11 | 37.82016 | 27.48342 | 35823 ft | 397 kts | 324° |
| 2026-04-26 12:12 | 37.84171 | 27.46150 | 36015 ft | 396 kts | 324° |
| 2026-04-26 12:12 | 37.86286 | 27.43994 | 36275 ft | 395 kts | 324° |
| 2026-04-26 12:12 | 37.88426 | 27.41813 | 36460 ft | 395 kts | 324° |
| 2026-04-26 12:12 | 37.89874 | 27.40336 | 36575 ft | 395 kts | 323° |
| 2026-04-26 12:13 | 37.92704 | 27.37447 | 36805 ft | 394 kts | 324° |
| 2026-04-26 12:13 | 37.94838 | 27.35266 | 36985 ft | 394 kts | 323° |
| 2026-04-26 12:13 | 37.96970 | 27.33086 | 37121 ft | 394 kts | 323° |
| 2026-04-26 12:14 | 38.01285 | 27.28671 | 37021 ft | 405 kts | 323° |
| 2026-04-26 12:14 | 38.05728 | 27.24116 | 37001 ft | 415 kts | 323° |
| 2026-04-26 12:15 | 38.10264 | 27.19458 | 37049 ft | 424 kts | 323° |
| 2026-04-26 12:15 | 38.14897 | 27.14693 | 37175 ft | 430 kts | 323° |
| 2026-04-26 12:15 | 38.17216 | 27.12304 | 37438 ft | 429 kts | 323° |
| 2026-04-26 12:16 | 38.19538 | 27.09911 | 37636 ft | 429 kts | 323° |
| 2026-04-26 12:16 | 38.21853 | 27.07521 | 37851 ft | 429 kts | 323° |
| 2026-04-26 12:16 | 38.24169 | 27.05130 | 37987 ft | 429 kts | 323° |
| 2026-04-26 12:17 | 38.28800 | 27.00342 | 37952 ft | 427 kts | 323° |
| 2026-04-26 12:17 | 38.33413 | 26.95564 | 37959 ft | 427 kts | 323° |
| 2026-04-26 12:18 | 38.38006 | 26.90798 | 37964 ft | 425 kts | 323° |
| 2026-04-26 12:18 | 38.42590 | 26.86035 | 37969 ft | 425 kts | 323° |
| 2026-04-26 12:19 | 38.47171 | 26.81266 | 37976 ft | 427 kts | 323° |
| 2026-04-26 12:19 | 38.51790 | 26.76449 | 37980 ft | 429 kts | 322° |
| 2026-04-26 12:20 | 38.56414 | 26.71619 | 37984 ft | 429 kts | 322° |
| 2026-04-26 12:20 | 38.61029 | 26.66789 | 37990 ft | 429 kts | 322° |
| 2026-04-26 12:21 | 38.65633 | 26.61963 | 37989 ft | 427 kts | 322° |
| 2026-04-26 12:21 | 38.70232 | 26.57135 | 37991 ft | 428 kts | 322° |
| 2026-04-26 12:22 | 38.74794 | 26.52337 | 37989 ft | 426 kts | 322° |
| 2026-04-26 12:22 | 38.79374 | 26.47512 | 37995 ft | 426 kts | 322° |
| 2026-04-26 12:23 | 38.83880 | 26.42595 | 37980 ft | 427 kts | 314° |
| 2026-04-26 12:23 | 38.87823 | 26.36860 | 37967 ft | 429 kts | 314° |
| 2026-04-26 12:24 | 38.91789 | 26.31150 | 38003 ft | 428 kts | 314° |
| 2026-04-26 12:24 | 38.95745 | 26.25444 | 37984 ft | 428 kts | 313° |
| 2026-04-26 12:25 | 39.01673 | 26.16872 | 38003 ft | 427 kts | 313° |
| 2026-04-26 12:25 | 39.05621 | 26.11149 | 38014 ft | 427 kts | 313° |
| 2026-04-26 12:26 | 39.09563 | 26.05426 | 38002 ft | 427 kts | 313° |
| 2026-04-26 12:26 | 39.13505 | 25.99693 | 38006 ft | 428 kts | 313° |
| 2026-04-26 12:27 | 39.17418 | 25.93990 | 38000 ft | 428 kts | 313° |
| 2026-04-26 12:27 | 39.21356 | 25.88241 | 38022 ft | 427 kts | 313° |
| 2026-04-26 12:28 | 39.25278 | 25.82505 | 38019 ft | 426 kts | 313° |
| 2026-04-26 12:28 | 39.29187 | 25.76777 | 38017 ft | 426 kts | 313° |
| 2026-04-26 12:29 | 39.33100 | 25.71034 | 38019 ft | 425 kts | 313° |
| 2026-04-26 12:30 | 39.38956 | 25.62417 | 38017 ft | 425 kts | 312° |
| 2026-04-26 12:30 | 39.42854 | 25.56669 | 38022 ft | 425 kts | 312° |
| 2026-04-26 12:31 | 39.48696 | 25.48034 | 38018 ft | 425 kts | 312° |
| 2026-04-26 12:31 | 39.52585 | 25.42272 | 38028 ft | 425 kts | 312° |
| 2026-04-26 12:32 | 39.56460 | 25.36520 | 38019 ft | 423 kts | 312° |
| 2026-04-26 12:33 | 39.62255 | 25.27900 | 38011 ft | 422 kts | 311° |
| 2026-04-26 12:33 | 39.66110 | 25.22150 | 38016 ft | 422 kts | 311° |
| 2026-04-26 12:34 | 39.69936 | 25.16435 | 38010 ft | 422 kts | 311° |
| 2026-04-26 12:34 | 39.73784 | 25.10676 | 38005 ft | 422 kts | 311° |
| 2026-04-26 12:35 | 39.77630 | 25.04910 | 38002 ft | 422 kts | 311° |
| 2026-04-26 12:35 | 39.81471 | 24.99138 | 38006 ft | 422 kts | 311° |
| 2026-04-26 12:36 | 39.85298 | 24.93379 | 38013 ft | 420 kts | 311° |
| 2026-04-26 12:36 | 39.89109 | 24.87633 | 38014 ft | 419 kts | 311° |
| 2026-04-26 12:37 | 39.92916 | 24.81882 | 38014 ft | 419 kts | 310° |
| 2026-04-26 12:37 | 39.96722 | 24.76121 | 38017 ft | 419 kts | 310° |
| 2026-04-26 12:38 | 40.00523 | 24.70359 | 38017 ft | 419 kts | 310° |
| 2026-04-26 12:38 | 40.04321 | 24.64588 | 38017 ft | 419 kts | 310° |
| 2026-04-26 12:39 | 40.08117 | 24.58812 | 38014 ft | 419 kts | 310° |
| 2026-04-26 12:39 | 40.11908 | 24.53030 | 38017 ft | 419 kts | 310° |
| 2026-04-26 12:40 | 40.15700 | 24.47238 | 38011 ft | 419 kts | 310° |
| 2026-04-26 12:40 | 40.19487 | 24.41442 | 38013 ft | 419 kts | 310° |
| 2026-04-26 12:41 | 40.23269 | 24.35642 | 38001 ft | 418 kts | 310° |
| 2026-04-26 12:41 | 40.27042 | 24.29846 | 38003 ft | 418 kts | 310° |
| 2026-04-26 12:42 | 40.30816 | 24.24037 | 38004 ft | 418 kts | 310° |
| 2026-04-26 12:42 | 40.34584 | 24.18227 | 38001 ft | 418 kts | 310° |
| 2026-04-26 12:43 | 40.37713 | 24.13392 | 37999 ft | 418 kts | 310° |
| 2026-04-26 12:43 | 40.42089 | 24.06621 | 37994 ft | 418 kts | 310° |
| 2026-04-26 12:44 | 40.45239 | 24.01733 | 38013 ft | 418 kts | 309° |
| 2026-04-26 12:44 | 40.48988 | 23.95913 | 37996 ft | 417 kts | 309° |
| 2026-04-26 12:45 | 40.52729 | 23.90089 | 37997 ft | 417 kts | 309° |
| 2026-04-26 12:45 | 40.56471 | 23.84256 | 37999 ft | 417 kts | 309° |
| 2026-04-26 12:46 | 40.60182 | 23.78458 | 37995 ft | 417 kts | 309° |
| 2026-04-26 12:46 | 40.63916 | 23.72613 | 37989 ft | 417 kts | 309° |
| 2026-04-26 12:47 | 40.67642 | 23.66770 | 37986 ft | 416 kts | 309° |
| 2026-04-26 12:47 | 40.71360 | 23.60929 | 37984 ft | 416 kts | 309° |
| 2026-04-26 12:48 | 40.75074 | 23.55082 | 37985 ft | 416 kts | 309° |
| 2026-04-26 12:48 | 40.78781 | 23.49236 | 37988 ft | 415 kts | 309° |
| 2026-04-26 12:49 | 40.82480 | 23.43392 | 37978 ft | 415 kts | 309° |
| 2026-04-26 12:49 | 40.86177 | 23.37538 | 37979 ft | 415 kts | 309° |
| 2026-04-26 12:50 | 40.89876 | 23.31670 | 37984 ft | 415 kts | 309° |
| 2026-04-26 12:50 | 40.93566 | 23.25805 | 37987 ft | 415 kts | 308° |
| 2026-04-26 12:51 | 40.97251 | 23.19937 | 37977 ft | 414 kts | 308° |
| 2026-04-26 12:51 | 41.00935 | 23.14059 | 37975 ft | 415 kts | 308° |
| 2026-04-26 12:52 | 41.04616 | 23.08178 | 37988 ft | 415 kts | 308° |